RYR24LW EGSS-LEIB
Flight info
| Callsign | RYR24LW |
|---|---|
| Flight time | 2h 15m |
| Altitude | 37000 |
| Route | NUGBO M183 SILVA Q41 COWLY T71 VAPID N859 DRAKE L151 SITET UN859 SOPIL DCT BALAN DCT EVPOK DCT NARAK DCT GAI DCT LOMRA DCT ROCAN DCT PUMAL N859 BCN Z174 CORDA |
| Aircraft | B738/M-SDE2E3FGHIRWXY/LB1 |
Departure
| Time | 2026-05-06 16:19 |
|---|---|
| Airport | London Stansted Airport (EGSS) |
Arrival
| Time | 2026-05-06 18:34 |
|---|---|
| Airport | Ibiza Airport (LEIB) |
| Time | Latitude | Longitude | Altitude | Speed | Heading |
|---|---|---|---|---|---|
| 2026-05-06 15:47 | 51.89160 | 0.25493 | 350 ft | 0 kts | 54° |
| 2026-05-06 16:06 | 51.89159 | 0.25491 | 348 ft | 2 kts | 54° |
| 2026-05-06 16:06 | 51.89144 | 0.25457 | 354 ft | 4 kts | 54° |
| 2026-05-06 16:06 | 51.89129 | 0.25432 | 358 ft | 4 kts | 4° |
| 2026-05-06 16:06 | 51.89110 | 0.25445 | 353 ft | 2 kts | 313° |
| 2026-05-06 16:07 | 51.89096 | 0.25470 | 358 ft | 2 kts | 313° |
| 2026-05-06 16:07 | 51.89095 | 0.25472 | 358 ft | 1 kts | 313° |
| 2026-05-06 16:09 | 51.89100 | 0.25463 | 355 ft | 5 kts | 313° |
| 2026-05-06 16:10 | 51.89120 | 0.25428 | 352 ft | 3 kts | 313° |
| 2026-05-06 16:10 | 51.89128 | 0.25413 | 351 ft | 1 kts | 313° |
| 2026-05-06 16:10 | 51.89148 | 0.25379 | 355 ft | 10 kts | 313° |
| 2026-05-06 16:10 | 51.89201 | 0.25245 | 353 ft | 15 kts | 304° |
| 2026-05-06 16:11 | 51.89231 | 0.25098 | 356 ft | 14 kts | 248° |
| 2026-05-06 16:11 | 51.89159 | 0.24954 | 348 ft | 22 kts | 220° |
| 2026-05-06 16:11 | 51.89044 | 0.24783 | 351 ft | 22 kts | 223° |
| 2026-05-06 16:11 | 51.88934 | 0.24616 | 348 ft | 21 kts | 223° |
| 2026-05-06 16:12 | 51.88827 | 0.24455 | 348 ft | 21 kts | 223° |
| 2026-05-06 16:12 | 51.88723 | 0.24299 | 351 ft | 20 kts | 223° |
| 2026-05-06 16:12 | 51.88621 | 0.24147 | 353 ft | 19 kts | 223° |
| 2026-05-06 16:12 | 51.88523 | 0.24000 | 356 ft | 19 kts | 223° |
| 2026-05-06 16:13 | 51.88428 | 0.23859 | 348 ft | 18 kts | 223° |
| 2026-05-06 16:13 | 51.88333 | 0.23715 | 352 ft | 19 kts | 223° |
| 2026-05-06 16:13 | 51.88238 | 0.23570 | 354 ft | 18 kts | 223° |
| 2026-05-06 16:13 | 51.88144 | 0.23431 | 352 ft | 18 kts | 222° |
| 2026-05-06 16:14 | 51.88054 | 0.23297 | 348 ft | 17 kts | 223° |
| 2026-05-06 16:14 | 51.87969 | 0.23169 | 351 ft | 17 kts | 223° |
| 2026-05-06 16:14 | 51.87886 | 0.23044 | 348 ft | 16 kts | 223° |
| 2026-05-06 16:14 | 51.87805 | 0.22925 | 352 ft | 15 kts | 223° |
| 2026-05-06 16:15 | 51.87728 | 0.22809 | 349 ft | 15 kts | 223° |
| 2026-05-06 16:15 | 51.87655 | 0.22699 | 351 ft | 14 kts | 223° |
| 2026-05-06 16:15 | 51.87584 | 0.22593 | 351 ft | 14 kts | 223° |
| 2026-05-06 16:15 | 51.87519 | 0.22489 | 347 ft | 10 kts | 240° |
| 2026-05-06 16:16 | 51.87523 | 0.22422 | 348 ft | 5 kts | 306° |
| 2026-05-06 16:16 | 51.87550 | 0.22374 | 338 ft | 7 kts | 312° |
| 2026-05-06 16:16 | 51.87573 | 0.22334 | 335 ft | 1 kts | 315° |
| 2026-05-06 16:16 | 51.87573 | 0.22333 | 335 ft | 0 kts | 315° |
| 2026-05-06 16:17 | 51.87574 | 0.22332 | 335 ft | 1 kts | 315° |
| 2026-05-06 16:17 | 51.87616 | 0.22278 | 335 ft | 14 kts | 332° |
| 2026-05-06 16:17 | 51.87704 | 0.22291 | 337 ft | 13 kts | 33° |
| 2026-05-06 16:17 | 51.87751 | 0.22357 | 337 ft | 0 kts | 42° |
| 2026-05-06 16:18 | 51.87819 | 0.22458 | 337 ft | 46 kts | 43° |
| 2026-05-06 16:19 | 51.88261 | 0.23120 | 337 ft | 125 kts | 43° |
| 2026-05-06 16:19 | 51.89005 | 0.24259 | 652 ft | 162 kts | 42° |
| 2026-05-06 16:19 | 51.89834 | 0.25536 | 1712 ft | 164 kts | 40° |
| 2026-05-06 16:19 | 51.90662 | 0.26781 | 2674 ft | 164 kts | 40° |
| 2026-05-06 16:20 | 51.91527 | 0.28003 | 3446 ft | 167 kts | 27° |
| 2026-05-06 16:20 | 51.92693 | 0.28180 | 3920 ft | 187 kts | 341° |
| 2026-05-06 16:20 | 51.93758 | 0.26768 | 4188 ft | 213 kts | 310° |
| 2026-05-06 16:20 | 51.94749 | 0.24780 | 4467 ft | 236 kts | 311° |
| 2026-05-06 16:21 | 51.95872 | 0.22626 | 4840 ft | 260 kts | 312° |
| 2026-05-06 16:21 | 51.97050 | 0.20353 | 5592 ft | 267 kts | 307° |
| 2026-05-06 16:21 | 51.97780 | 0.17556 | 6450 ft | 273 kts | 283° |
| 2026-05-06 16:21 | 51.98119 | 0.14502 | 7277 ft | 276 kts | 281° |
| 2026-05-06 16:22 | 51.98434 | 0.11435 | 8176 ft | 276 kts | 281° |
| 2026-05-06 16:22 | 51.98756 | 0.08358 | 9070 ft | 277 kts | 281° |
| 2026-05-06 16:22 | 51.98897 | 0.05238 | 9930 ft | 280 kts | 263° |
| 2026-05-06 16:22 | 51.98505 | 0.02116 | 10592 ft | 289 kts | 259° |
| 2026-05-06 16:23 | 51.98060 | -0.01214 | 10777 ft | 314 kts | 259° |
| 2026-05-06 16:23 | 51.97592 | -0.04785 | 11115 ft | 331 kts | 259° |
| 2026-05-06 16:23 | 51.97113 | -0.08480 | 11749 ft | 338 kts | 259° |
| 2026-05-06 16:23 | 51.96627 | -0.12206 | 12582 ft | 338 kts | 259° |
| 2026-05-06 16:24 | 51.96138 | -0.15958 | 13306 ft | 343 kts | 259° |
| 2026-05-06 16:24 | 51.95639 | -0.19770 | 14035 ft | 345 kts | 259° |
| 2026-05-06 16:24 | 51.95143 | -0.23554 | 14707 ft | 349 kts | 259° |
| 2026-05-06 16:24 | 51.94642 | -0.27369 | 15350 ft | 352 kts | 259° |
| 2026-05-06 16:25 | 51.94129 | -0.31273 | 16017 ft | 356 kts | 259° |
| 2026-05-06 16:25 | 51.93611 | -0.35209 | 16684 ft | 359 kts | 259° |
| 2026-05-06 16:25 | 51.93083 | -0.39204 | 17302 ft | 363 kts | 259° |
| 2026-05-06 16:25 | 51.92551 | -0.43215 | 18007 ft | 365 kts | 258° |
| 2026-05-06 16:26 | 51.92013 | -0.47266 | 18558 ft | 370 kts | 258° |
| 2026-05-06 16:26 | 51.91469 | -0.51346 | 19153 ft | 371 kts | 258° |
| 2026-05-06 16:26 | 51.90923 | -0.55436 | 19779 ft | 372 kts | 258° |
| 2026-05-06 16:26 | 51.90370 | -0.59558 | 20301 ft | 376 kts | 258° |
| 2026-05-06 16:27 | 51.89812 | -0.63713 | 20831 ft | 380 kts | 258° |
| 2026-05-06 16:27 | 51.89246 | -0.67907 | 21412 ft | 382 kts | 258° |
| 2026-05-06 16:27 | 51.88676 | -0.72126 | 21951 ft | 384 kts | 258° |
| 2026-05-06 16:27 | 51.88110 | -0.76306 | 22475 ft | 387 kts | 258° |
| 2026-05-06 16:28 | 51.87530 | -0.80575 | 23011 ft | 389 kts | 258° |
| 2026-05-06 16:28 | 51.86945 | -0.84877 | 23540 ft | 392 kts | 258° |
| 2026-05-06 16:28 | 51.86355 | -0.89192 | 23971 ft | 394 kts | 257° |
| 2026-05-06 16:28 | 51.85630 | -0.93488 | 24371 ft | 397 kts | 246° |
| 2026-05-06 16:29 | 51.84150 | -0.97267 | 24769 ft | 401 kts | 228° |
| 2026-05-06 16:29 | 51.82001 | -1.00160 | 25193 ft | 405 kts | 213° |
| 2026-05-06 16:29 | 51.79405 | -1.01992 | 25590 ft | 411 kts | 195° |
| 2026-05-06 16:29 | 51.76584 | -1.02829 | 26018 ft | 414 kts | 191° |
| 2026-05-06 16:30 | 51.73719 | -1.03497 | 26401 ft | 416 kts | 190° |
| 2026-05-06 16:30 | 51.71813 | -1.03928 | 26648 ft | 418 kts | 190° |
| 2026-05-06 16:30 | 51.67953 | -1.04856 | 27161 ft | 420 kts | 191° |
| 2026-05-06 16:30 | 51.65058 | -1.05596 | 27550 ft | 422 kts | 191° |
| 2026-05-06 16:31 | 51.62150 | -1.06320 | 27919 ft | 424 kts | 188° |
| 2026-05-06 16:31 | 51.59193 | -1.06523 | 28266 ft | 428 kts | 180° |
| 2026-05-06 16:31 | 51.56278 | -1.06343 | 28631 ft | 430 kts | 179° |
| 2026-05-06 16:31 | 51.53282 | -1.06116 | 28978 ft | 432 kts | 179° |
| 2026-05-06 16:32 | 51.50266 | -1.05895 | 29306 ft | 434 kts | 179° |
| 2026-05-06 16:32 | 51.47247 | -1.05696 | 29625 ft | 436 kts | 179° |
| 2026-05-06 16:32 | 51.44207 | -1.05514 | 29950 ft | 438 kts | 179° |
| 2026-05-06 16:32 | 51.41158 | -1.05343 | 30228 ft | 439 kts | 179° |
| 2026-05-06 16:33 | 51.38091 | -1.05172 | 30483 ft | 441 kts | 179° |
| 2026-05-06 16:33 | 51.35023 | -1.05002 | 30806 ft | 440 kts | 179° |
| 2026-05-06 16:33 | 51.31964 | -1.04838 | 31194 ft | 439 kts | 179° |
| 2026-05-06 16:34 | 51.25891 | -1.04110 | 31809 ft | 441 kts | 170° |
| 2026-05-06 16:34 | 51.22931 | -1.02818 | 32082 ft | 443 kts | 161° |
| 2026-05-06 16:34 | 51.20104 | -1.00853 | 32418 ft | 443 kts | 156° |
| 2026-05-06 16:34 | 51.17315 | -0.98774 | 32762 ft | 442 kts | 156° |
| 2026-05-06 16:35 | 51.14536 | -0.96693 | 33033 ft | 442 kts | 156° |
| 2026-05-06 16:35 | 51.11738 | -0.94617 | 33292 ft | 443 kts | 156° |
| 2026-05-06 16:35 | 51.08941 | -0.92566 | 33595 ft | 442 kts | 157° |
| 2026-05-06 16:35 | 51.07091 | -0.91221 | 33806 ft | 442 kts | 157° |
| 2026-05-06 16:36 | 51.03344 | -0.88512 | 34151 ft | 442 kts | 157° |
| 2026-05-06 16:36 | 51.01506 | -0.87188 | 34293 ft | 442 kts | 157° |
| 2026-05-06 16:36 | 50.98689 | -0.85162 | 34511 ft | 442 kts | 157° |
| 2026-05-06 16:36 | 50.95899 | -0.83157 | 34732 ft | 442 kts | 157° |
| 2026-05-06 16:37 | 50.93082 | -0.81134 | 34942 ft | 442 kts | 157° |
| 2026-05-06 16:37 | 50.90276 | -0.79121 | 35133 ft | 443 kts | 157° |
| 2026-05-06 16:37 | 50.87463 | -0.77107 | 35353 ft | 443 kts | 157° |
| 2026-05-06 16:37 | 50.84701 | -0.74947 | 35567 ft | 443 kts | 150° |
| 2026-05-06 16:38 | 50.82121 | -0.72273 | 35743 ft | 444 kts | 147° |
| 2026-05-06 16:38 | 50.79578 | -0.69476 | 35952 ft | 445 kts | 146° |
| 2026-05-06 16:38 | 50.77040 | -0.66673 | 36147 ft | 444 kts | 146° |
| 2026-05-06 16:38 | 50.74500 | -0.63901 | 36365 ft | 444 kts | 147° |
| 2026-05-06 16:39 | 50.71980 | -0.61189 | 36543 ft | 444 kts | 147° |
| 2026-05-06 16:39 | 50.69417 | -0.58453 | 36706 ft | 444 kts | 147° |
| 2026-05-06 16:39 | 50.66854 | -0.55740 | 36894 ft | 444 kts | 147° |
| 2026-05-06 16:40 | 50.61678 | -0.50312 | 36965 ft | 447 kts | 147° |
| 2026-05-06 16:40 | 50.56522 | -0.44866 | 36958 ft | 444 kts | 147° |
| 2026-05-06 16:41 | 50.51452 | -0.39515 | 36964 ft | 440 kts | 147° |
| 2026-05-06 16:41 | 50.46378 | -0.34178 | 36970 ft | 437 kts | 147° |
| 2026-05-06 16:42 | 50.41326 | -0.28882 | 36972 ft | 436 kts | 147° |
| 2026-05-06 16:42 | 50.36288 | -0.23613 | 36968 ft | 435 kts | 147° |
| 2026-05-06 16:43 | 50.31238 | -0.18346 | 36974 ft | 436 kts | 147° |
| 2026-05-06 16:43 | 50.26186 | -0.13087 | 36970 ft | 437 kts | 147° |
| 2026-05-06 16:44 | 50.21136 | -0.07885 | 36972 ft | 438 kts | 150° |
| 2026-05-06 16:44 | 50.15629 | -0.03848 | 36970 ft | 438 kts | 158° |
| 2026-05-06 16:45 | 50.10023 | -0.00087 | 36970 ft | 438 kts | 160° |
| 2026-05-06 16:45 | 50.04143 | 0.02446 | 36969 ft | 438 kts | 167° |
| 2026-05-06 16:46 | 49.98216 | 0.04677 | 36970 ft | 439 kts | 167° |
| 2026-05-06 16:46 | 49.92287 | 0.06955 | 36972 ft | 439 kts | 166° |
| 2026-05-06 16:47 | 49.86394 | 0.09254 | 36971 ft | 438 kts | 166° |
| 2026-05-06 16:47 | 49.80472 | 0.11568 | 36975 ft | 438 kts | 166° |
| 2026-05-06 16:48 | 49.74574 | 0.13864 | 36982 ft | 437 kts | 166° |
| 2026-05-06 16:48 | 49.68685 | 0.16149 | 36986 ft | 435 kts | 166° |
| 2026-05-06 16:49 | 49.62830 | 0.18488 | 36987 ft | 434 kts | 165° |
| 2026-05-06 16:49 | 49.56998 | 0.20867 | 36991 ft | 433 kts | 165° |
| 2026-05-06 16:50 | 49.51173 | 0.23230 | 36994 ft | 432 kts | 165° |
| 2026-05-06 16:50 | 49.45356 | 0.25576 | 36969 ft | 432 kts | 165° |
| 2026-05-06 16:51 | 49.39589 | 0.27895 | 36966 ft | 431 kts | 165° |
| 2026-05-06 16:51 | 49.33783 | 0.30225 | 36969 ft | 430 kts | 165° |
| 2026-05-06 16:52 | 49.27998 | 0.32571 | 36967 ft | 431 kts | 164° |
| 2026-05-06 16:52 | 49.22212 | 0.35014 | 36963 ft | 431 kts | 164° |
| 2026-05-06 16:53 | 49.16415 | 0.37465 | 36961 ft | 432 kts | 164° |
| 2026-05-06 16:53 | 49.10605 | 0.39905 | 36958 ft | 433 kts | 164° |
| 2026-05-06 16:54 | 49.04832 | 0.42317 | 36953 ft | 434 kts | 164° |
| 2026-05-06 16:54 | 48.98994 | 0.44750 | 36952 ft | 435 kts | 164° |
| 2026-05-06 16:55 | 48.94100 | 0.46785 | 36955 ft | 436 kts | 164° |
| 2026-05-06 16:55 | 48.87290 | 0.49611 | 36952 ft | 437 kts | 164° |
| 2026-05-06 16:56 | 48.81424 | 0.52039 | 36951 ft | 437 kts | 164° |
| 2026-05-06 16:56 | 48.75544 | 0.54424 | 36956 ft | 437 kts | 165° |
| 2026-05-06 16:57 | 48.69648 | 0.56714 | 36942 ft | 437 kts | 165° |
| 2026-05-06 16:57 | 48.63768 | 0.58996 | 36950 ft | 437 kts | 165° |
| 2026-05-06 16:58 | 48.57928 | 0.61271 | 36947 ft | 436 kts | 165° |
| 2026-05-06 16:58 | 48.52051 | 0.63557 | 36944 ft | 435 kts | 165° |
| 2026-05-06 16:59 | 48.46202 | 0.65912 | 36944 ft | 435 kts | 164° |
| 2026-05-06 16:59 | 48.40368 | 0.68299 | 36959 ft | 434 kts | 164° |
| 2026-05-06 17:00 | 48.34539 | 0.70668 | 36947 ft | 434 kts | 164° |
| 2026-05-06 17:00 | 48.28716 | 0.73021 | 36941 ft | 433 kts | 164° |
| 2026-05-06 17:01 | 48.22894 | 0.75359 | 36938 ft | 433 kts | 165° |
| 2026-05-06 17:01 | 48.17062 | 0.77655 | 36951 ft | 433 kts | 165° |
| 2026-05-06 17:02 | 48.11230 | 0.79941 | 36957 ft | 433 kts | 165° |
| 2026-05-06 17:02 | 48.05388 | 0.82232 | 36944 ft | 434 kts | 165° |
| 2026-05-06 17:03 | 47.99574 | 0.84509 | 36941 ft | 435 kts | 165° |
| 2026-05-06 17:03 | 47.93703 | 0.86803 | 36947 ft | 436 kts | 165° |
| 2026-05-06 17:04 | 47.87801 | 0.89104 | 36936 ft | 439 kts | 165° |
| 2026-05-06 17:04 | 47.81909 | 0.91394 | 36942 ft | 436 kts | 165° |
| 2026-05-06 17:05 | 47.76048 | 0.93661 | 36920 ft | 434 kts | 165° |
| 2026-05-06 17:05 | 47.70216 | 0.95913 | 36953 ft | 433 kts | 166° |
| 2026-05-06 17:06 | 47.64377 | 0.98164 | 36938 ft | 434 kts | 166° |
| 2026-05-06 17:06 | 47.58527 | 1.00413 | 36932 ft | 435 kts | 166° |
| 2026-05-06 17:07 | 47.52705 | 1.02648 | 36946 ft | 436 kts | 166° |
| 2026-05-06 17:07 | 47.46831 | 1.04897 | 36925 ft | 436 kts | 166° |
| 2026-05-06 17:08 | 47.40875 | 1.06485 | 36928 ft | 435 kts | 180° |
| 2026-05-06 17:08 | 47.34834 | 1.06328 | 36935 ft | 435 kts | 182° |
| 2026-05-06 17:09 | 47.28781 | 1.06106 | 36935 ft | 435 kts | 181° |
| 2026-05-06 17:09 | 47.22713 | 1.05944 | 36933 ft | 436 kts | 181° |
| 2026-05-06 17:10 | 47.16644 | 1.05809 | 36937 ft | 436 kts | 181° |
| 2026-05-06 17:10 | 47.10570 | 1.05677 | 36952 ft | 437 kts | 181° |
| 2026-05-06 17:11 | 47.04482 | 1.05542 | 36936 ft | 437 kts | 181° |
| 2026-05-06 17:11 | 46.98395 | 1.05355 | 36937 ft | 437 kts | 182° |
| 2026-05-06 17:12 | 46.92350 | 1.05075 | 36937 ft | 437 kts | 182° |
| 2026-05-06 17:12 | 46.86223 | 1.04793 | 36940 ft | 437 kts | 182° |
| 2026-05-06 17:13 | 46.80178 | 1.04527 | 36937 ft | 437 kts | 182° |
| 2026-05-06 17:13 | 46.74097 | 1.04265 | 36940 ft | 437 kts | 182° |
| 2026-05-06 17:14 | 46.68021 | 1.04004 | 36937 ft | 437 kts | 182° |
| 2026-05-06 17:14 | 46.61942 | 1.03743 | 36948 ft | 437 kts | 182° |
| 2026-05-06 17:15 | 46.55868 | 1.03483 | 36932 ft | 437 kts | 182° |
| 2026-05-06 17:15 | 46.49804 | 1.03779 | 36922 ft | 438 kts | 170° |
| 2026-05-06 17:16 | 46.43869 | 1.05754 | 36929 ft | 438 kts | 168° |
| 2026-05-06 17:16 | 46.37939 | 1.07823 | 36931 ft | 438 kts | 168° |
| 2026-05-06 17:17 | 46.32000 | 1.09845 | 36930 ft | 438 kts | 168° |
| 2026-05-06 17:17 | 46.26065 | 1.11828 | 36920 ft | 438 kts | 168° |
| 2026-05-06 17:18 | 46.20118 | 1.13802 | 36924 ft | 439 kts | 168° |
| 2026-05-06 17:18 | 46.14198 | 1.15761 | 36924 ft | 439 kts | 168° |
| 2026-05-06 17:19 | 46.08225 | 1.17735 | 36922 ft | 440 kts | 168° |
| 2026-05-06 17:19 | 46.02238 | 1.19710 | 36915 ft | 442 kts | 168° |
| 2026-05-06 17:20 | 45.96225 | 1.21689 | 36910 ft | 443 kts | 169° |
| 2026-05-06 17:20 | 45.90216 | 1.23662 | 36909 ft | 444 kts | 169° |
| 2026-05-06 17:21 | 45.84185 | 1.25638 | 36918 ft | 445 kts | 169° |
| 2026-05-06 17:21 | 45.79160 | 1.27282 | 36913 ft | 445 kts | 169° |
| 2026-05-06 17:22 | 45.72094 | 1.29587 | 36917 ft | 446 kts | 169° |
| 2026-05-06 17:22 | 45.67069 | 1.31223 | 36913 ft | 446 kts | 169° |
| 2026-05-06 17:23 | 45.59990 | 1.33523 | 36908 ft | 446 kts | 169° |
| 2026-05-06 17:23 | 45.54959 | 1.35154 | 36903 ft | 446 kts | 169° |
| 2026-05-06 17:24 | 45.47935 | 1.37426 | 36899 ft | 445 kts | 169° |
| 2026-05-06 17:24 | 45.42876 | 1.39058 | 36905 ft | 445 kts | 169° |
| 2026-05-06 17:25 | 45.36877 | 1.40990 | 36901 ft | 444 kts | 169° |
| 2026-05-06 17:25 | 45.30848 | 1.42928 | 36913 ft | 444 kts | 169° |
| 2026-05-06 17:26 | 45.24828 | 1.44859 | 36913 ft | 444 kts | 169° |
| 2026-05-06 17:26 | 45.18805 | 1.46788 | 36912 ft | 443 kts | 169° |
| 2026-05-06 17:27 | 45.12787 | 1.48710 | 36908 ft | 443 kts | 169° |
| 2026-05-06 17:27 | 45.06770 | 1.50628 | 36915 ft | 443 kts | 169° |
| 2026-05-06 17:28 | 45.00750 | 1.52543 | 36910 ft | 443 kts | 170° |
| 2026-05-06 17:28 | 44.94708 | 1.54460 | 36915 ft | 448 kts | 170° |
| 2026-05-06 17:29 | 44.88613 | 1.56388 | 36919 ft | 455 kts | 170° |
| 2026-05-06 17:29 | 44.82413 | 1.58348 | 36918 ft | 458 kts | 170° |
| 2026-05-06 17:30 | 44.76180 | 1.60314 | 36912 ft | 460 kts | 170° |
| 2026-05-06 17:30 | 44.69925 | 1.62283 | 36916 ft | 460 kts | 170° |
| 2026-05-06 17:31 | 44.63676 | 1.64245 | 36911 ft | 459 kts | 170° |
| 2026-05-06 17:31 | 44.57453 | 1.66195 | 36919 ft | 457 kts | 170° |
| 2026-05-06 17:32 | 44.51264 | 1.68130 | 36921 ft | 454 kts | 170° |
| 2026-05-06 17:32 | 44.45117 | 1.70047 | 36933 ft | 451 kts | 170° |
| 2026-05-06 17:33 | 44.39037 | 1.71939 | 36920 ft | 449 kts | 170° |
| 2026-05-06 17:33 | 44.32947 | 1.73831 | 36925 ft | 447 kts | 171° |
| 2026-05-06 17:34 | 44.26865 | 1.75591 | 36924 ft | 444 kts | 173° |
| 2026-05-06 17:34 | 44.20778 | 1.76907 | 36935 ft | 442 kts | 175° |
| 2026-05-06 17:35 | 44.14693 | 1.78179 | 36937 ft | 442 kts | 174° |
| 2026-05-06 17:35 | 44.08597 | 1.79502 | 36942 ft | 443 kts | 174° |
| 2026-05-06 17:36 | 43.99435 | 1.81516 | 36937 ft | 445 kts | 174° |
| 2026-05-06 17:36 | 43.93299 | 1.82709 | 36943 ft | 444 kts | 179° |
| 2026-05-06 17:37 | 43.87178 | 1.83310 | 36942 ft | 445 kts | 180° |
| 2026-05-06 17:37 | 43.80992 | 1.83835 | 36955 ft | 446 kts | 180° |
| 2026-05-06 17:38 | 43.74799 | 1.84404 | 36952 ft | 446 kts | 180° |
| 2026-05-06 17:38 | 43.68600 | 1.85002 | 36963 ft | 446 kts | 180° |
| 2026-05-06 17:39 | 43.62402 | 1.85605 | 36962 ft | 446 kts | 180° |
| 2026-05-06 17:39 | 43.56218 | 1.86203 | 36967 ft | 445 kts | 180° |
| 2026-05-06 17:40 | 43.50053 | 1.86798 | 36968 ft | 444 kts | 180° |
| 2026-05-06 17:40 | 43.43904 | 1.87389 | 36948 ft | 442 kts | 180° |
| 2026-05-06 17:41 | 43.37770 | 1.87977 | 36950 ft | 440 kts | 180° |
| 2026-05-06 17:41 | 43.31672 | 1.88562 | 36952 ft | 439 kts | 180° |
| 2026-05-06 17:42 | 43.25601 | 1.89147 | 36956 ft | 437 kts | 181° |
| 2026-05-06 17:42 | 43.19562 | 1.89728 | 36963 ft | 437 kts | 181° |
| 2026-05-06 17:43 | 43.13502 | 1.90308 | 36952 ft | 436 kts | 181° |
| 2026-05-06 17:43 | 43.07440 | 1.90888 | 36967 ft | 436 kts | 181° |
| 2026-05-06 17:44 | 43.01384 | 1.91466 | 36963 ft | 436 kts | 181° |
| 2026-05-06 17:44 | 42.95329 | 1.92043 | 36973 ft | 436 kts | 181° |
| 2026-05-06 17:45 | 42.89301 | 1.92616 | 36979 ft | 437 kts | 181° |
| 2026-05-06 17:45 | 42.83235 | 1.93192 | 36975 ft | 438 kts | 181° |
| 2026-05-06 17:46 | 42.77152 | 1.93768 | 36981 ft | 438 kts | 181° |
| 2026-05-06 17:46 | 42.71064 | 1.94345 | 36980 ft | 439 kts | 181° |
| 2026-05-06 17:47 | 42.64956 | 1.95064 | 36999 ft | 443 kts | 178° |
| 2026-05-06 17:47 | 42.58833 | 1.96306 | 36963 ft | 445 kts | 176° |
| 2026-05-06 17:48 | 42.52726 | 1.97600 | 36959 ft | 443 kts | 177° |
| 2026-05-06 17:48 | 42.46626 | 1.98832 | 36954 ft | 442 kts | 177° |
| 2026-05-06 17:49 | 42.40584 | 2.00029 | 36942 ft | 440 kts | 177° |
| 2026-05-06 17:49 | 42.34537 | 2.01087 | 36939 ft | 435 kts | 181° |
| 2026-05-06 17:50 | 42.28495 | 2.01671 | 36924 ft | 433 kts | 182° |
| 2026-05-06 17:50 | 42.22481 | 2.02196 | 36926 ft | 432 kts | 182° |
| 2026-05-06 17:51 | 42.16522 | 2.02745 | 36918 ft | 431 kts | 181° |
| 2026-05-06 17:51 | 42.10544 | 2.03315 | 36920 ft | 430 kts | 181° |
| 2026-05-06 17:52 | 42.04567 | 2.03888 | 36919 ft | 430 kts | 182° |
| 2026-05-06 17:52 | 41.98588 | 2.04460 | 36917 ft | 430 kts | 182° |
| 2026-05-06 17:53 | 41.92610 | 2.05029 | 36915 ft | 431 kts | 182° |
| 2026-05-06 17:53 | 41.86618 | 2.05600 | 36918 ft | 432 kts | 182° |
| 2026-05-06 17:54 | 41.80623 | 2.06169 | 36928 ft | 432 kts | 182° |
| 2026-05-06 17:54 | 41.74656 | 2.06736 | 36921 ft | 433 kts | 182° |
| 2026-05-06 17:55 | 41.72615 | 2.06929 | 36922 ft | 432 kts | 182° |
| 2026-05-06 17:58 | 41.72210 | 2.06968 | 36923 ft | 432 kts | 182° |
| 2026-05-06 17:58 | 41.66203 | 2.07534 | 36924 ft | 433 kts | 182° |
| 2026-05-06 17:59 | 41.60194 | 2.08088 | 36937 ft | 433 kts | 182° |
| 2026-05-06 17:59 | 41.54188 | 2.08641 | 36930 ft | 432 kts | 182° |
| 2026-05-06 18:00 | 41.48191 | 2.09194 | 36937 ft | 432 kts | 182° |
| 2026-05-06 18:00 | 41.42195 | 2.09746 | 36948 ft | 431 kts | 182° |
| 2026-05-06 18:01 | 41.36197 | 2.10293 | 36928 ft | 432 kts | 182° |
| 2026-05-06 18:01 | 41.30215 | 2.10858 | 36934 ft | 431 kts | 181° |
| 2026-05-06 18:02 | 41.24272 | 2.11770 | 36932 ft | 433 kts | 179° |
| 2026-05-06 18:02 | 41.18306 | 2.12834 | 36931 ft | 432 kts | 179° |
| 2026-05-06 18:03 | 41.12363 | 2.13870 | 36930 ft | 431 kts | 179° |
| 2026-05-06 18:03 | 41.06415 | 2.14876 | 36925 ft | 430 kts | 180° |
| 2026-05-06 18:04 | 41.00482 | 2.15866 | 36923 ft | 429 kts | 180° |
| 2026-05-06 18:04 | 40.94557 | 2.16852 | 36918 ft | 429 kts | 180° |
| 2026-05-06 18:05 | 40.88621 | 2.17838 | 36920 ft | 430 kts | 180° |
| 2026-05-06 18:05 | 40.82691 | 2.18823 | 36924 ft | 430 kts | 180° |
| 2026-05-06 18:06 | 40.76759 | 2.19807 | 36923 ft | 430 kts | 180° |
| 2026-05-06 18:06 | 40.70821 | 2.20789 | 36918 ft | 430 kts | 180° |
| 2026-05-06 18:07 | 40.64881 | 2.21771 | 36918 ft | 430 kts | 180° |
| 2026-05-06 18:07 | 40.58939 | 2.22750 | 36923 ft | 430 kts | 180° |
| 2026-05-06 18:08 | 40.52990 | 2.23730 | 36921 ft | 430 kts | 180° |
| 2026-05-06 18:08 | 40.47095 | 2.24701 | 36916 ft | 424 kts | 180° |
| 2026-05-06 18:09 | 40.41264 | 2.25664 | 36919 ft | 421 kts | 179° |
| 2026-05-06 18:09 | 40.35481 | 2.27041 | 36929 ft | 423 kts | 176° |
| 2026-05-06 18:10 | 40.29731 | 2.28611 | 36927 ft | 422 kts | 176° |
| 2026-05-06 18:10 | 40.24921 | 2.29894 | 36620 ft | 430 kts | 176° |
| 2026-05-06 18:11 | 40.21984 | 2.30611 | 36369 ft | 425 kts | 182° |
| 2026-05-06 18:11 | 40.19123 | 2.30501 | 35970 ft | 402 kts | 199° |
| 2026-05-06 18:11 | 40.16502 | 2.29435 | 35445 ft | 389 kts | 210° |
| 2026-05-06 18:11 | 40.14170 | 2.27730 | 34880 ft | 381 kts | 220° |
| 2026-05-06 18:12 | 40.11997 | 2.25750 | 34344 ft | 381 kts | 220° |
| 2026-05-06 18:12 | 40.09823 | 2.23777 | 33790 ft | 380 kts | 220° |
| 2026-05-06 18:12 | 40.07646 | 2.21810 | 33090 ft | 381 kts | 220° |
| 2026-05-06 18:12 | 40.05451 | 2.19835 | 32366 ft | 384 kts | 219° |
| 2026-05-06 18:13 | 40.03270 | 2.17887 | 31957 ft | 377 kts | 219° |
| 2026-05-06 18:13 | 40.01094 | 2.15947 | 31541 ft | 381 kts | 219° |
| 2026-05-06 18:13 | 39.98875 | 2.13967 | 31144 ft | 392 kts | 219° |
| 2026-05-06 18:13 | 39.96596 | 2.11936 | 30717 ft | 400 kts | 219° |
| 2026-05-06 18:14 | 39.94297 | 2.09895 | 30286 ft | 400 kts | 218° |
| 2026-05-06 18:14 | 39.91998 | 2.07859 | 29848 ft | 400 kts | 218° |
| 2026-05-06 18:14 | 39.89696 | 2.05824 | 29365 ft | 400 kts | 218° |
| 2026-05-06 18:14 | 39.87427 | 2.03818 | 28941 ft | 399 kts | 218° |
| 2026-05-06 18:15 | 39.85116 | 2.01775 | 28500 ft | 404 kts | 218° |
| 2026-05-06 18:15 | 39.82776 | 1.99706 | 28014 ft | 411 kts | 218° |
| 2026-05-06 18:15 | 39.80397 | 1.97605 | 27476 ft | 414 kts | 218° |
| 2026-05-06 18:15 | 39.78009 | 1.95498 | 26957 ft | 415 kts | 218° |
| 2026-05-06 18:16 | 39.75612 | 1.93387 | 26450 ft | 417 kts | 217° |
| 2026-05-06 18:16 | 39.73217 | 1.91280 | 25936 ft | 414 kts | 217° |
| 2026-05-06 18:16 | 39.70834 | 1.89186 | 25394 ft | 413 kts | 217° |
| 2026-05-06 18:16 | 39.68454 | 1.87095 | 24863 ft | 413 kts | 217° |
| 2026-05-06 18:17 | 39.66083 | 1.85013 | 24342 ft | 412 kts | 217° |
| 2026-05-06 18:17 | 39.63709 | 1.82930 | 23836 ft | 411 kts | 217° |
| 2026-05-06 18:17 | 39.61338 | 1.80851 | 23293 ft | 411 kts | 217° |
| 2026-05-06 18:17 | 39.58977 | 1.78784 | 22694 ft | 409 kts | 217° |
| 2026-05-06 18:18 | 39.56622 | 1.76723 | 22110 ft | 407 kts | 217° |
| 2026-05-06 18:18 | 39.54294 | 1.74688 | 21529 ft | 401 kts | 217° |
| 2026-05-06 18:18 | 39.51998 | 1.72683 | 20975 ft | 395 kts | 217° |
| 2026-05-06 18:18 | 39.49735 | 1.70709 | 20445 ft | 391 kts | 217° |
| 2026-05-06 18:19 | 39.47487 | 1.68747 | 19951 ft | 388 kts | 217° |
| 2026-05-06 18:19 | 39.45263 | 1.66809 | 19503 ft | 383 kts | 217° |
| 2026-05-06 18:19 | 39.43061 | 1.64890 | 19065 ft | 379 kts | 217° |
| 2026-05-06 18:19 | 39.40907 | 1.63015 | 18648 ft | 376 kts | 217° |
| 2026-05-06 18:20 | 39.38747 | 1.61136 | 18221 ft | 372 kts | 217° |
| 2026-05-06 18:20 | 39.36611 | 1.59279 | 17738 ft | 369 kts | 217° |
| 2026-05-06 18:20 | 39.34465 | 1.57415 | 17244 ft | 366 kts | 216° |
| 2026-05-06 18:20 | 39.32399 | 1.55579 | 16729 ft | 364 kts | 219° |
| 2026-05-06 18:21 | 39.30406 | 1.53566 | 16210 ft | 363 kts | 221° |
| 2026-05-06 18:21 | 39.28469 | 1.51489 | 15711 ft | 362 kts | 222° |
| 2026-05-06 18:21 | 39.26547 | 1.49400 | 15217 ft | 361 kts | 222° |
| 2026-05-06 18:21 | 39.24628 | 1.47321 | 14732 ft | 359 kts | 221° |
| 2026-05-06 18:22 | 39.22716 | 1.45266 | 14249 ft | 356 kts | 221° |
| 2026-05-06 18:22 | 39.20812 | 1.43234 | 13773 ft | 352 kts | 221° |
| 2026-05-06 18:22 | 39.18950 | 1.41257 | 13231 ft | 343 kts | 221° |
| 2026-05-06 18:22 | 39.17130 | 1.39332 | 12700 ft | 335 kts | 221° |
| 2026-05-06 18:23 | 39.15346 | 1.37447 | 12182 ft | 328 kts | 221° |
| 2026-05-06 18:23 | 39.13597 | 1.35602 | 11673 ft | 322 kts | 221° |
| 2026-05-06 18:23 | 39.11872 | 1.33785 | 11173 ft | 317 kts | 221° |
| 2026-05-06 18:23 | 39.10175 | 1.31998 | 10678 ft | 313 kts | 221° |
| 2026-05-06 18:24 | 39.08498 | 1.30233 | 10199 ft | 309 kts | 221° |
| 2026-05-06 18:24 | 39.06844 | 1.28493 | 9711 ft | 306 kts | 221° |
| 2026-05-06 18:24 | 39.05221 | 1.26786 | 9188 ft | 303 kts | 221° |
| 2026-05-06 18:24 | 39.03596 | 1.25079 | 8672 ft | 300 kts | 221° |
| 2026-05-06 18:25 | 39.01985 | 1.23388 | 8163 ft | 298 kts | 221° |
| 2026-05-06 18:25 | 39.00387 | 1.21710 | 7661 ft | 295 kts | 220° |
| 2026-05-06 18:25 | 38.98804 | 1.20050 | 7161 ft | 292 kts | 220° |
| 2026-05-06 18:25 | 38.97242 | 1.18413 | 6699 ft | 288 kts | 219° |
| 2026-05-06 18:26 | 38.95698 | 1.16799 | 6231 ft | 284 kts | 218° |
| 2026-05-06 18:26 | 38.93995 | 1.15554 | 5740 ft | 280 kts | 204° |
| 2026-05-06 18:26 | 38.92219 | 1.14583 | 5309 ft | 276 kts | 202° |
| 2026-05-06 18:26 | 38.90462 | 1.13646 | 4890 ft | 272 kts | 201° |
| 2026-05-06 18:27 | 38.88728 | 1.12720 | 4483 ft | 268 kts | 201° |
| 2026-05-06 18:27 | 38.87025 | 1.11806 | 4116 ft | 262 kts | 201° |
| 2026-05-06 18:27 | 38.85391 | 1.10924 | 3828 ft | 254 kts | 201° |
| 2026-05-06 18:27 | 38.83789 | 1.10055 | 3547 ft | 240 kts | 201° |
| 2026-05-06 18:28 | 38.82291 | 1.09234 | 3260 ft | 228 kts | 201° |
| 2026-05-06 18:28 | 38.80854 | 1.08453 | 3080 ft | 224 kts | 197° |
| 2026-05-06 18:28 | 38.79324 | 1.08322 | 3000 ft | 221 kts | 163° |
| 2026-05-06 18:28 | 38.78046 | 1.09288 | 2979 ft | 212 kts | 130° |
| 2026-05-06 18:29 | 38.77467 | 1.10944 | 2993 ft | 202 kts | 97° |
| 2026-05-06 18:29 | 38.77452 | 1.12686 | 2973 ft | 196 kts | 77° |
| 2026-05-06 18:29 | 38.77921 | 1.14299 | 2994 ft | 192 kts | 69° |
| 2026-05-06 18:29 | 38.78465 | 1.15843 | 2978 ft | 187 kts | 64° |
| 2026-05-06 18:30 | 38.79058 | 1.17316 | 2973 ft | 184 kts | 63° |
| 2026-05-06 18:30 | 38.79646 | 1.18748 | 2936 ft | 178 kts | 64° |
| 2026-05-06 18:30 | 38.80211 | 1.20122 | 2753 ft | 170 kts | 64° |
| 2026-05-06 18:30 | 38.80745 | 1.21419 | 2533 ft | 160 kts | 63° |
| 2026-05-06 18:31 | 38.81262 | 1.22680 | 2316 ft | 159 kts | 64° |
| 2026-05-06 18:31 | 38.81755 | 1.23880 | 2109 ft | 155 kts | 64° |
| 2026-05-06 18:31 | 38.82238 | 1.25054 | 1944 ft | 144 kts | 64° |
| 2026-05-06 18:31 | 38.82708 | 1.26196 | 1737 ft | 143 kts | 64° |
| 2026-05-06 18:32 | 38.83167 | 1.27315 | 1524 ft | 139 kts | 64° |
| 2026-05-06 18:32 | 38.83617 | 1.28411 | 1349 ft | 138 kts | 64° |
| 2026-05-06 18:32 | 38.84069 | 1.29510 | 1157 ft | 140 kts | 64° |
| 2026-05-06 18:32 | 38.84526 | 1.30620 | 983 ft | 142 kts | 64° |
| 2026-05-06 18:33 | 38.84990 | 1.31734 | 745 ft | 142 kts | 63° |
| 2026-05-06 18:33 | 38.85448 | 1.32842 | 572 ft | 140 kts | 63° |
| 2026-05-06 18:33 | 38.85894 | 1.33919 | 372 ft | 132 kts | 64° |
| 2026-05-06 18:33 | 38.86326 | 1.34963 | 220 ft | 133 kts | 64° |
| 2026-05-06 18:34 | 38.86757 | 1.36013 | 54 ft | 133 kts | 64° |
| 2026-05-06 18:34 | 38.87163 | 1.37007 | 28 ft | 110 kts | 62° |
| 2026-05-06 18:34 | 38.87451 | 1.37707 | 27 ft | 64 kts | 62° |
| 2026-05-06 18:34 | 38.87605 | 1.38076 | 26 ft | 30 kts | 62° |
| 2026-05-06 18:35 | 38.87704 | 1.38247 | 26 ft | 15 kts | 9° |
| 2026-05-06 18:35 | 38.87788 | 1.38203 | 24 ft | 12 kts | 327° |
| 2026-05-06 18:35 | 38.87806 | 1.38112 | 24 ft | 12 kts | 249° |
| 2026-05-06 18:35 | 38.87770 | 1.38021 | 24 ft | 11 kts | 240° |
| 2026-05-06 18:36 | 38.87734 | 1.37934 | 27 ft | 11 kts | 242° |
| 2026-05-06 18:36 | 38.87695 | 1.37841 | 27 ft | 12 kts | 242° |
| 2026-05-06 18:36 | 38.87656 | 1.37746 | 26 ft | 12 kts | 242° |
| 2026-05-06 18:36 | 38.87617 | 1.37653 | 26 ft | 12 kts | 242° |
| 2026-05-06 18:37 | 38.87601 | 1.37558 | 28 ft | 12 kts | 301° |
| 2026-05-06 18:37 | 38.87645 | 1.37519 | 24 ft | 11 kts | 334° |
| 2026-05-06 18:37 | 38.87713 | 1.37435 | 24 ft | 11 kts | 255° |
| 2026-05-06 18:37 | 38.87678 | 1.37347 | 27 ft | 11 kts | 242° |
| 2026-05-06 18:38 | 38.87643 | 1.37263 | 24 ft | 11 kts | 242° |
| 2026-05-06 18:38 | 38.87609 | 1.37179 | 27 ft | 13 kts | 242° |
| 2026-05-06 18:38 | 38.87558 | 1.37056 | 25 ft | 15 kts | 243° |
| 2026-05-06 18:38 | 38.87566 | 1.37012 | 25 ft | 4 kts | 328° |
| 2026-05-06 18:39 | 38.87597 | 1.36992 | 24 ft | 5 kts | 333° |
| 2026-05-06 18:39 | 38.87609 | 1.36984 | 24 ft | 0 kts | 333° |